Malpensa International Airport LIMC

Flugplatz Daten

Name: Malpensa International Airport

Ident: LIMC

Lat: 45,63059998

Long: 8,728110313

Platzhöhe: 768 ft

IataCode: MXP

City: Milan

Homepage: http://www.sea-aeroportimilano.it/en/malpensa/index.phtml

Metar

2021/08/05 13:20
LIMC 051320Z 23006KT 190V270 CAVOK 27/17 Q1007 NOSIG

Taf

2021/08/05 12:00
TAF LIMC 051100Z 0512/0618 22010KT 9999 FEW040
BECMG 0515/0517 VRB05KT
Gewünschte Webcam nicht vorhanden? Dann fügen Sie eine hinzu. Sie wird dann so schnell wie möglich freigeschaltet
Url: Title: